Time;durP1;ratioP1;P1;durP2;ratioP2;P2;SDS_P1;SDS_P2;PMS_P1;PMS_P2;Temp;Humidity;BMP_temperature;BMP_pressure;BME280_temperature;BME280_humidity;BME280_pressure;Samples;Min_cycle;Max_cycle;Signal;HPM_P1;HPM_P2
2022/07/07 00:00:39;;;;;;;2.05;1.58;;;18.40;99.90;;;;;;5056595;28;20049;-67
2022/07/07 00:03:06;;;;;;;1.63;1.00;;;18.30;99.90;;;;;;5056068;28;20379;-66
2022/07/07 00:05:33;;;;;;;2.13;1.35;;;18.40;99.90;;;;;;5055447;28;20102;-67
2022/07/07 00:08:00;;;;;;;2.00;1.35;;;18.40;99.90;;;;;;5055389;28;20435;-67
2022/07/07 00:10:27;;;;;;;2.15;1.05;;;18.40;99.90;;;;;;5039727;28;20040;-67
2022/07/07 00:12:55;;;;;;;2.17;1.30;;;18.30;99.90;;;;;;5056806;28;20056;-66
2022/07/07 00:15:22;;;;;;;1.90;1.20;;;18.30;99.90;;;;;;5056427;28;20049;-66
2022/07/07 00:17:49;;;;;;;2.22;0.80;;;18.30;99.90;;;;;;5055254;28;20491;-67
2022/07/07 00:20:15;;;;;;;1.70;1.02;;;18.20;99.90;;;;;;5056334;28;20480;-66
2022/07/07 00:22:42;;;;;;;1.65;1.10;;;18.20;99.90;;;;;;5056204;28;20045;-66
2022/07/07 00:25:09;;;;;;;2.97;1.05;;;18.20;99.90;;;;;;5056158;28;20048;-66
2022/07/07 00:27:37;;;;;;;1.65;0.85;;;18.20;99.90;;;;;;5057016;28;20077;-67
2022/07/07 00:30:05;;;;;;;2.53;1.30;;;18.20;99.90;;;;;;5057273;28;20060;-67
2022/07/07 00:32:32;;;;;;;2.95;1.23;;;18.20;99.90;;;;;;5054964;28;20385;-67
2022/07/07 00:34:59;;;;;;;2.25;1.27;;;18.20;99.90;;;;;;5055972;28;20048;-67
2022/07/07 00:37:26;;;;;;;2.47;1.33;;;18.30;99.90;;;;;;5055160;28;20049;-67
2022/07/07 00:39:53;;;;;;;4.57;1.38;;;18.20;99.90;;;;;;5056782;28;20045;-67
2022/07/07 00:42:19;;;;;;;4.32;1.60;;;18.20;99.90;;;;;;5057131;28;20045;-67
2022/07/07 00:44:46;;;;;;;2.45;1.48;;;18.20;99.90;;;;;;5056723;28;20037;-67
2022/07/07 00:47:13;;;;;;;2.92;1.25;;;18.30;99.90;;;;;;5056436;28;20488;-67
2022/07/07 00:49:41;;;;;;;2.30;1.45;;;18.30;99.90;;;;;;5055670;28;20040;-67
2022/07/07 00:52:08;;;;;;;1.77;1.17;;;18.30;99.90;;;;;;5056565;28;20045;-67
2022/07/07 00:54:35;;;;;;;1.60;1.10;;;18.30;99.90;;;;;;5056095;28;20045;-67
2022/07/07 00:57:03;;;;;;;2.90;1.55;;;18.30;99.90;;;;;;5054832;28;20041;-67
2022/07/07 00:59:50;;;;;;;4.07;1.40;;;18.30;99.90;;;;;;5054847;28;20126;-67
2022/07/07 01:02:16;;;;;;;2.65;1.30;;;18.40;99.90;;;;;;5055587;28;20048;-67
2022/07/07 01:04:43;;;;;;;3.03;1.35;;;18.40;99.90;;;;;;5055507;28;20481;-67
2022/07/07 01:07:10;;;;;;;1.30;1.02;;;18.50;99.90;;;;;;5054275;28;20045;-67
2022/07/07 01:09:37;;;;;;;3.10;1.20;;;18.50;99.90;;;;;;5054160;28;20483;-67
2022/07/07 01:12:04;;;;;;;2.33;1.33;;;18.50;99.90;;;;;;5054523;28;20048;-67
2022/07/07 01:14:31;;;;;;;1.85;1.10;;;18.50;99.90;;;;;;5056482;28;20037;-66
2022/07/07 01:16:58;;;;;;;1.83;1.20;;;18.50;99.90;;;;;;5055182;28;20376;-67
2022/07/07 01:19:25;;;;;;;2.50;1.25;;;18.60;99.90;;;;;;5054036;28;20041;-66
2022/07/07 01:21:53;;;;;;;2.97;1.30;;;18.60;99.90;;;;;;5055212;28;20045;-66
2022/07/07 01:24:21;;;;;;;2.45;1.30;;;18.60;99.90;;;;;;5055606;28;20329;-66
2022/07/07 01:26:48;;;;;;;3.30;1.33;;;18.60;99.90;;;;;;5054205;28;20099;-67
2022/07/07 01:29:15;;;;;;;1.83;1.38;;;18.60;99.90;;;;;;5054970;28;20049;-67
2022/07/07 01:31:42;;;;;;;2.33;1.38;;;18.60;99.90;;;;;;5054925;28;20055;-67
2022/07/07 01:34:09;;;;;;;3.60;1.40;;;18.60;99.90;;;;;;5037326;28;20055;-67
2022/07/07 01:36:36;;;;;;;4.80;1.40;;;18.50;99.90;;;;;;5056278;28;20048;-67
2022/07/07 01:39:03;;;;;;;2.05;1.17;;;18.50;99.90;;;;;;5054846;28;20052;-67
2022/07/07 01:41:30;;;;;;;2.55;1.27;;;18.50;99.90;;;;;;5054944;28;20048;-67
2022/07/07 01:43:57;;;;;;;1.92;1.20;;;18.40;99.90;;;;;;5055091;28;20135;-67
2022/07/07 01:46:24;;;;;;;2.03;1.27;;;18.40;99.90;;;;;;5053487;28;20041;-67
2022/07/07 01:48:51;;;;;;;2.25;1.30;;;18.30;99.90;;;;;;5054698;28;20469;-67
2022/07/07 01:51:17;;;;;;;2.60;1.02;;;18.30;99.90;;;;;;5054885;28;20045;-67
2022/07/07 01:53:44;;;;;;;1.80;1.30;;;18.20;99.90;;;;;;5055399;28;20373;-67
2022/07/07 01:56:11;;;;;;;2.00;1.15;;;18.10;99.90;;;;;;5054600;28;20402;-67
2022/07/07 01:58:38;;;;;;;3.88;1.50;;;18.00;99.90;;;;;;5054228;28;20476;-66
2022/07/07 02:01:05;;;;;;;2.15;1.42;;;18.00;99.90;;;;;;5053561;28;20047;-66
2022/07/07 02:03:32;;;;;;;3.05;1.70;;;17.90;99.90;;;;;;5054338;28;20453;-67
2022/07/07 02:05:59;;;;;;;1.90;1.25;;;17.90;99.90;;;;;;5054403;28;20246;-67
2022/07/07 02:08:26;;;;;;;2.90;1.88;;;17.80;99.90;;;;;;5054287;28;20052;-67
2022/07/07 02:13:39;;;;;;;3.33;1.27;;;17.80;99.90;;;;;;5053517;28;20051;-67
2022/07/07 02:16:06;;;;;;;6.07;2.08;;;17.80;99.90;;;;;;5054476;28;20041;-67
2022/07/07 02:18:36;;;;;;;3.05;1.52;;;17.80;99.90;;;;;;5052893;28;20465;-66
2022/07/07 02:21:04;;;;;;;2.17;1.50;;;17.80;99.90;;;;;;5053205;28;20047;-67
2022/07/07 02:23:31;;;;;;;2.67;1.50;;;17.90;99.90;;;;;;5053578;28;20048;-67
2022/07/07 02:25:58;;;;;;;2.72;1.65;;;17.90;99.90;;;;;;5053798;28;20049;-67
2022/07/07 02:28:26;;;;;;;3.47;1.40;;;18.00;99.90;;;;;;5052492;28;20415;-67
2022/07/07 02:30:54;;;;;;;3.00;1.70;;;18.00;99.90;;;;;;5053798;28;20048;-68
2022/07/07 02:33:21;;;;;;;2.92;1.58;;;18.00;99.90;;;;;;5053761;28;20123;-67
2022/07/07 02:35:48;;;;;;;2.05;1.40;;;18.10;99.90;;;;;;5053723;28;20127;-67
2022/07/07 02:38:15;;;;;;;2.90;1.83;;;18.10;99.90;;;;;;5052773;28;20051;-67
2022/07/07 02:40:42;;;;;;;2.40;1.48;;;18.10;99.90;;;;;;5054435;28;20468;-67
2022/07/07 02:43:12;;;;;;;3.55;1.30;;;18.10;99.90;;;;;;5054010;28;20056;-67
2022/07/07 02:45:40;;;;;;;3.15;1.30;;;18.20;99.90;;;;;;5054493;28;20041;-67
2022/07/07 02:48:11;;;;;;;4.72;1.38;;;18.20;99.90;;;;;;5052351;28;20045;-67
2022/07/07 02:50:38;;;;;;;2.63;1.52;;;18.20;99.90;;;;;;5053342;28;20052;-67
2022/07/07 02:53:07;;;;;;;3.00;1.70;;;18.20;99.90;;;;;;5054315;28;20051;-67
2022/07/07 02:55:34;;;;;;;3.72;2.50;;;18.20;99.90;;;;;;5052616;28;20072;-67
2022/07/07 02:58:01;;;;;;;2.92;1.45;;;18.20;99.90;;;;;;5054168;28;20048;-66
2022/07/07 03:00:28;;;;;;;3.85;1.45;;;18.20;99.90;;;;;;5054475;28;20128;-67
2022/07/07 03:02:55;;;;;;;3.50;1.70;;;18.20;99.90;;;;;;5052110;28;20448;-67
2022/07/07 03:05:22;;;;;;;4.32;1.50;;;18.20;99.90;;;;;;5053195;28;20148;-67
2022/07/07 03:07:49;;;;;;;2.92;1.77;;;18.30;99.90;;;;;;5052137;28;20052;-67
2022/07/07 03:10:16;;;;;;;3.15;1.75;;;18.30;99.90;;;;;;5053977;28;20049;-67
2022/07/07 03:12:43;;;;;;;2.63;1.60;;;18.30;99.90;;;;;;5053576;28;20041;-67
2022/07/07 03:15:10;;;;;;;3.25;1.60;;;18.30;99.90;;;;;;5053502;28;20464;-67
2022/07/07 03:17:40;;;;;;;3.22;1.90;;;18.30;99.90;;;;;;5052793;28;20040;-67
2022/07/07 03:20:08;;;;;;;2.28;1.42;;;18.30;99.90;;;;;;5054275;28;20052;-67
2022/07/07 03:22:35;;;;;;;2.47;1.30;;;18.30;99.90;;;;;;5051851;28;20472;-67
2022/07/07 03:25:02;;;;;;;3.28;1.63;;;18.30;99.90;;;;;;5052784;28;20047;-67
2022/07/07 03:27:29;;;;;;;2.53;1.27;;;18.30;99.90;;;;;;5051796;28;20045;-67
2022/07/07 03:29:56;;;;;;;2.90;1.70;;;18.30;99.90;;;;;;5052666;28;20049;-67
2022/07/07 03:32:23;;;;;;;3.10;1.70;;;18.30;99.90;;;;;;5053211;28;20380;-67
2022/07/07 03:34:50;;;;;;;2.92;1.70;;;18.30;99.90;;;;;;5053249;28;20037;-67
2022/07/07 03:37:17;;;;;;;4.25;1.73;;;18.30;99.90;;;;;;5051751;28;20128;-67
2022/07/07 03:39:44;;;;;;;2.97;2.08;;;18.40;99.90;;;;;;5052110;28;20051;-67
2022/07/07 03:42:11;;;;;;;2.78;1.80;;;18.40;99.90;;;;;;5053047;28;20053;-67
2022/07/07 03:44:38;;;;;;;3.13;1.40;;;18.40;99.90;;;;;;5053000;28;20495;-67
2022/07/07 03:47:05;;;;;;;3.10;1.60;;;18.40;99.90;;;;;;5052917;28;20045;-67
2022/07/07 03:49:32;;;;;;;2.42;1.52;;;18.40;99.90;;;;;;5051673;28;20060;-67
2022/07/07 03:51:59;;;;;;;2.47;1.73;;;18.40;99.90;;;;;;5052714;28;20044;-67
2022/07/07 03:54:26;;;;;;;2.50;1.80;;;18.40;99.90;;;;;;5035231;28;20040;-67
2022/07/07 03:56:53;;;;;;;5.55;2.00;;;18.40;99.90;;;;;;5053074;28;20127;-67
2022/07/07 03:59:20;;;;;;;2.72;1.38;;;18.40;99.90;;;;;;5053087;28;20048;-67
2022/07/07 04:01:47;;;;;;;5.05;2.10;;;18.30;99.90;;;;;;5052705;28;20045;-67
2022/07/07 04:04:15;;;;;;;3.25;1.23;;;18.40;99.90;;;;;;5035335;28;20045;-67
2022/07/07 04:06:42;;;;;;;3.30;1.55;;;18.30;99.90;;;;;;5051506;28;20041;-67
2022/07/07 04:09:09;;;;;;;3.40;1.60;;;18.30;99.90;;;;;;5052250;28;20052;-67
2022/07/07 04:11:36;;;;;;;2.72;1.65;;;18.30;99.90;;;;;;5052137;28;20389;-66
2022/07/07 04:14:04;;;;;;;2.17;1.40;;;18.20;99.90;;;;;;5051793;28;20048;-66
2022/07/07 04:16:31;;;;;;;2.78;1.60;;;18.30;99.90;;;;;;5052612;28;20384;-67
2022/07/07 04:18:58;;;;;;;4.00;1.67;;;18.20;99.90;;;;;;5051497;28;20094;-67
2022/07/07 04:21:25;;;;;;;2.88;1.45;;;18.30;99.90;;;;;;5052412;28;20051;-67
2022/07/07 04:23:52;;;;;;;3.65;1.60;;;18.30;99.90;;;;;;5052716;28;20037;-67
2022/07/07 04:26:19;;;;;;;3.20;1.70;;;18.30;99.90;;;;;;5052700;28;20484;-67
2022/07/07 04:28:46;;;;;;;4.68;1.83;;;18.20;99.90;;;;;;5052595;28;20388;-67
2022/07/07 04:31:13;;;;;;;2.55;1.67;;;18.20;99.90;;;;;;5052375;28;20469;-67
2022/07/07 04:33:40;;;;;;;3.47;1.48;;;18.30;99.90;;;;;;5052043;28;20041;-67
2022/07/07 04:36:07;;;;;;;2.92;1.52;;;18.20;99.90;;;;;;5053097;28;20484;-67
2022/07/07 04:38:34;;;;;;;2.40;1.55;;;18.20;99.90;;;;;;5056219;28;20056;-67
2022/07/07 04:41:01;;;;;;;4.28;1.80;;;18.30;99.90;;;;;;5056285;28;20053;-67
2022/07/07 04:43:28;;;;;;;3.05;1.63;;;18.30;99.90;;;;;;5055870;28;20047;-67
2022/07/07 04:45:55;;;;;;;4.07;1.80;;;18.30;99.90;;;;;;5055889;28;20047;-67
2022/07/07 04:48:22;;;;;;;2.10;1.60;;;18.20;99.90;;;;;;5056164;28;20042;-67
2022/07/07 04:50:49;;;;;;;3.58;1.60;;;18.30;99.90;;;;;;5055766;28;20040;-71
2022/07/07 04:53:16;;;;;;;9.27;6.70;;;18.30;99.90;;;;;;5056312;28;20067;-67
2022/07/07 04:55:43;;;;;;;3.92;2.42;;;18.20;99.90;;;;;;5056043;28;20052;-67
2022/07/07 04:58:10;;;;;;;2.85;1.83;;;18.30;99.90;;;;;;5056013;28;20051;-67
2022/07/07 05:00:36;;;;;;;4.32;2.00;;;18.20;99.90;;;;;;5055871;28;20524;-73
2022/07/07 05:03:03;;;;;;;2.90;2.00;;;18.20;99.90;;;;;;5055394;28;20037;-67
2022/07/07 05:05:30;;;;;;;3.20;1.75;;;18.20;99.90;;;;;;5054298;28;20542;-67
2022/07/07 05:07:57;;;;;;;3.67;2.08;;;18.20;99.90;;;;;;5054574;28;20080;-67
2022/07/07 05:10:25;;;;;;;3.30;1.83;;;18.20;99.90;;;;;;5055809;28;20041;-67
2022/07/07 05:12:52;;;;;;;3.58;1.80;;;18.20;99.90;;;;;;5037991;28;20045;-67
2022/07/07 05:15:21;;;;;;;3.58;1.48;;;18.20;99.90;;;;;;5054653;28;20510;-67
2022/07/07 05:17:48;;;;;;;5.07;2.33;;;18.10;99.90;;;;;;5055674;28;20041;-67
2022/07/07 05:20:20;;;;;;;4.10;2.15;;;18.10;99.90;;;;;;5054760;28;20456;-66
2022/07/07 05:22:47;;;;;;;6.50;3.67;;;18.00;99.90;;;;;;5055272;28;20056;-67
2022/07/07 05:25:14;;;;;;;3.42;1.83;;;18.00;99.90;;;;;;5054330;28;20049;-67
2022/07/07 05:27:44;;;;;;;3.80;1.65;;;18.00;99.90;;;;;;5054946;28;20063;-67
2022/07/07 05:30:17;;;;;;;3.35;2.00;;;17.90;99.90;;;;;;5055012;28;20053;-67
2022/07/07 05:32:44;;;;;;;12.90;9.20;;;17.90;99.90;;;;;;5053681;28;20473;-68
2022/07/07 05:35:11;;;;;;;4.85;2.58;;;17.90;99.90;;;;;;5055841;28;20042;-67
2022/07/07 05:37:40;;;;;;;3.63;2.33;;;17.90;99.90;;;;;;5055226;28;20075;-68
2022/07/07 05:40:08;;;;;;;3.13;2.30;;;18.00;99.90;;;;;;5055924;28;20104;-68
2022/07/07 05:42:35;;;;;;;5.18;2.20;;;18.00;99.90;;;;;;5055093;28;20052;-68
2022/07/07 05:45:03;;;;;;;5.13;2.05;;;17.90;99.90;;;;;;5055945;28;20353;-68
2022/07/07 05:47:29;;;;;;;2.65;1.60;;;17.90;99.90;;;;;;5055771;28;20396;-68
2022/07/07 05:49:57;;;;;;;3.92;1.80;;;17.90;99.90;;;;;;5053414;28;20052;-68
2022/07/07 05:52:23;;;;;;;2.72;1.60;;;17.80;99.90;;;;;;5055354;28;20436;-67
2022/07/07 05:54:50;;;;;;;3.35;1.92;;;17.80;99.90;;;;;;5054867;28;20051;-67
2022/07/07 05:57:17;;;;;;;14.27;2.00;;;17.80;99.90;;;;;;5055625;28;20041;-67
2022/07/07 05:59:44;;;;;;;5.28;1.75;;;17.70;99.90;;;;;;5054747;28;20060;-68
2022/07/07 06:02:11;;;;;;;4.05;1.95;;;17.70;99.90;;;;;;5054711;28;20091;-67
2022/07/07 06:04:38;;;;;;;3.03;1.70;;;17.60;99.90;;;;;;5053526;28;20131;-68
2022/07/07 06:07:05;;;;;;;7.03;4.85;;;17.60;99.90;;;;;;5054676;28;20052;-69
2022/07/07 06:09:32;;;;;;;5.63;1.90;;;17.60;99.90;;;;;;5054274;28;20045;-68
2022/07/07 06:11:59;;;;;;;3.05;1.80;;;17.60;99.90;;;;;;5053918;28;20044;-73
2022/07/07 06:14:26;;;;;;;4.32;2.03;;;17.60;99.90;;;;;;5055663;28;20049;-71
2022/07/07 06:16:53;;;;;;;3.15;1.63;;;17.70;99.90;;;;;;5053080;28;20473;-68
2022/07/07 06:19:20;;;;;;;3.97;1.83;;;17.70;99.90;;;;;;5054244;28;20087;-75
2022/07/07 06:21:47;;;;;;;4.65;1.70;;;17.70;99.90;;;;;;5053050;28;20051;-76
2022/07/07 06:24:14;;;;;;;3.08;1.70;;;17.80;99.90;;;;;;5053619;28;20048;-71
2022/07/07 06:26:41;;;;;;;12.90;9.45;;;17.80;99.90;;;;;;5052814;28;20523;-75
2022/07/07 06:29:08;;;;;;;5.60;4.65;;;17.90;99.90;;;;;;5054203;28;20056;-75
2022/07/07 06:31:36;;;;;;;3.28;2.50;;;17.90;99.90;;;;;;5053120;28;20045;-74
2022/07/07 06:34:03;;;;;;;4.57;2.15;;;18.00;99.90;;;;;;5053814;28;20045;-74
2022/07/07 06:36:30;;;;;;;2.88;1.80;;;18.10;99.90;;;;;;5053491;28;20381;-73
2022/07/07 06:38:56;;;;;;;5.63;1.60;;;18.10;99.90;;;;;;5053041;28;20104;-67
2022/07/07 06:41:23;;;;;;;3.50;1.80;;;18.10;99.90;;;;;;5053988;28;20048;-54
2022/07/07 06:43:50;;;;;;;3.03;1.52;;;18.10;99.90;;;;;;5054485;28;20053;-65
2022/07/07 06:46:17;;;;;;;5.22;1.85;;;18.10;99.90;;;;;;5054184;28;20041;-65
2022/07/07 06:48:44;;;;;;;2.53;1.42;;;18.10;99.90;;;;;;5053479;28;20036;-65
2022/07/07 06:51:11;;;;;;;2.45;1.65;;;18.20;99.90;;;;;;5054608;28;20041;-65
2022/07/07 06:53:38;;;;;;;3.78;1.80;;;18.20;99.90;;;;;;5053848;28;20045;-66
2022/07/07 06:56:05;;;;;;;3.30;1.65;;;18.10;99.90;;;;;;5053442;28;20051;-65
2022/07/07 06:58:32;;;;;;;4.68;2.42;;;18.10;99.90;;;;;;5053303;28;20362;-66
2022/07/07 07:00:59;;;;;;;4.45;1.90;;;18.20;99.90;;;;;;5052742;28;20063;-67
2022/07/07 07:03:25;;;;;;;4.05;1.95;;;18.20;99.90;;;;;;5054135;28;20147;-67
2022/07/07 07:05:53;;;;;;;5.15;2.08;;;18.10;99.90;;;;;;5052076;28;20056;-67
2022/07/07 07:08:24;;;;;;;5.53;1.92;;;18.10;99.90;;;;;;5053363;28;20045;-71
2022/07/07 07:10:51;;;;;;;3.25;2.03;;;18.10;99.90;;;;;;5053184;28;20044;-70
2022/07/07 07:13:18;;;;;;;5.65;2.03;;;18.20;99.90;;;;;;5035660;28;20048;-74
2022/07/07 07:15:45;;;;;;;3.47;2.13;;;18.20;99.90;;;;;;5053268;28;20041;-75
2022/07/07 07:18:13;;;;;;;6.97;2.58;;;18.20;99.90;;;;;;5053639;28;20044;-73
2022/07/07 07:20:40;;;;;;;2.90;1.98;;;18.20;99.90;;;;;;5053074;28;20488;-75
2022/07/07 07:23:07;;;;;;;3.80;1.98;;;18.10;99.90;;;;;;5053497;28;20051;-76
2022/07/07 07:25:34;;;;;;;7.07;3.00;;;18.10;99.90;;;;;;5053139;28;20128;-75
2022/07/07 07:28:01;;;;;;;4.93;2.35;;;18.20;99.90;;;;;;5052046;28;20049;-76
2022/07/07 07:30:28;;;;;;;4.57;2.10;;;18.10;99.90;;;;;;5052038;28;20124;-75
2022/07/07 07:32:56;;;;;;;4.07;1.90;;;18.10;99.90;;;;;;5052255;28;20404;-74
2022/07/07 07:35:23;;;;;;;3.55;1.80;;;18.20;99.90;;;;;;5052665;28;20041;-73
2022/07/07 07:37:50;;;;;;;3.92;2.22;;;18.20;99.90;;;;;;5053317;28;20457;-75
2022/07/07 07:40:17;;;;;;;4.40;2.30;;;18.20;99.90;;;;;;5036318;28;20045;-72
2022/07/07 07:42:44;;;;;;;28.77;23.48;;;18.20;99.90;;;;;;5052939;28;20072;-84
2022/07/07 07:45:11;;;;;;;12.48;10.82;;;18.30;99.90;;;;;;5053133;28;20480;-72
2022/07/07 07:47:46;;;;;;;4.88;3.15;;;18.30;99.90;;;;;;5052071;28;20408;-75
2022/07/07 07:50:15;;;;;;;5.45;2.88;;;18.30;99.90;;;;;;5053942;28;20091;-70
2022/07/07 07:52:42;;;;;;;6.25;2.20;;;18.30;99.90;;;;;;5052564;28;20041;-71
2022/07/07 07:55:10;;;;;;;3.67;2.20;;;18.30;99.90;;;;;;5052703;28;20041;-73
2022/07/07 07:57:37;;;;;;;6.82;1.83;;;18.40;99.90;;;;;;5051551;28;20485;-74
2022/07/07 08:00:05;;;;;;;3.95;2.10;;;18.40;99.90;;;;;;5052792;28;20045;-73
2022/07/07 08:02:32;;;;;;;3.70;2.25;;;18.40;99.90;;;;;;5053172;28;20045;-70
2022/07/07 08:04:59;;;;;;;6.70;2.42;;;18.40;99.90;;;;;;5051413;28;20132;-70
2022/07/07 08:07:26;;;;;;;4.28;2.20;;;18.40;99.90;;;;;;5052644;28;20047;-72
2022/07/07 08:09:52;;;;;;;6.18;1.95;;;18.50;99.90;;;;;;5053019;28;20041;-73
2022/07/07 08:12:19;;;;;;;3.58;1.80;;;18.50;99.90;;;;;;5056708;28;20045;-73
2022/07/07 08:14:47;;;;;;;4.97;1.85;;;18.50;99.90;;;;;;5056631;28;20510;-71
2022/07/07 08:17:15;;;;;;;5.75;1.85;;;18.50;99.90;;;;;;5057411;28;20037;-69
2022/07/07 08:19:42;;;;;;;8.15;4.40;;;18.50;99.90;;;;;;5056645;28;20383;-70
2022/07/07 08:22:09;;;;;;;4.38;1.83;;;18.50;99.90;;;;;;5055470;28;20048;-67
2022/07/07 08:24:36;;;;;;;5.53;1.95;;;18.50;99.90;;;;;;5056496;28;20041;-70
2022/07/07 08:27:03;;;;;;;4.63;1.80;;;18.60;99.90;;;;;;5056136;28;20037;-70
2022/07/07 08:29:30;;;;;;;2.67;1.63;;;18.60;99.90;;;;;;5056492;28;20064;-70
2022/07/07 08:31:57;;;;;;;5.30;1.77;;;18.60;99.90;;;;;;5056415;28;20048;-70
2022/07/07 08:34:24;;;;;;;5.90;1.70;;;18.50;99.90;;;;;;5055417;28;20126;-71
2022/07/07 08:36:52;;;;;;;2.65;1.60;;;18.60;99.90;;;;;;5056115;28;20083;-71
2022/07/07 08:39:19;;;;;;;3.80;1.70;;;18.60;99.90;;;;;;5038506;28;20132;-71
2022/07/07 08:41:46;;;;;;;3.00;1.60;;;18.70;99.90;;;;;;5054663;28;20037;-71
2022/07/07 08:44:13;;;;;;;2.95;1.42;;;18.90;99.90;;;;;;5054707;28;20090;-71
2022/07/07 08:46:41;;;;;;;4.60;1.67;;;18.90;99.90;;;;;;5055386;28;20376;-70
2022/07/07 08:49:09;;;;;;;6.10;2.28;;;19.00;99.90;;;;;;5054700;28;20472;-71
2022/07/07 08:51:43;;;;;;;3.45;1.92;;;19.20;99.90;;;;;;5056018;28;20079;-71
2022/07/07 08:54:13;;;;;;;7.25;1.73;;;19.20;99.90;;;;;;5054827;28;20091;-71
2022/07/07 08:56:41;;;;;;;11.48;2.70;;;19.20;99.90;;;;;;5055469;28;20115;-71
2022/07/07 08:59:13;;;;;;;4.90;1.67;;;19.30;99.90;;;;;;5055824;28;20044;-71
2022/07/07 09:01:40;;;;;;;4.72;1.77;;;19.40;99.90;;;;;;5054632;28;20045;-71
2022/07/07 09:04:07;;;;;;;6.38;1.85;;;19.70;99.90;;;;;;5054961;28;20044;-72
2022/07/07 09:06:34;;;;;;;5.90;1.92;;;19.80;99.90;;;;;;5055769;28;20370;-71
2022/07/07 09:09:03;;;;;;;2.70;1.50;;;19.90;99.90;;;;;;5055599;28;20052;-71
2022/07/07 09:11:32;;;;;;;2.85;1.42;;;20.10;99.90;;;;;;5054090;28;20048;-71
2022/07/07 09:14:12;;;;;;;2.80;1.50;;;20.10;99.90;;;;;;5055521;28;20045;-71
2022/07/07 09:16:39;;;;;;;4.50;1.75;;;20.10;99.90;;;;;;5055155;28;20051;-71
2022/07/07 09:19:20;;;;;;;8.10;6.50;;;19.90;99.90;;;;;;5055636;28;20044;-76
2022/07/07 09:21:47;;;;;;;4.70;3.08;;;19.80;99.90;;;;;;5054683;28;20179;-77
2022/07/07 09:24:14;;;;;;;4.35;2.20;;;19.90;99.90;;;;;;5054236;28;20040;-73
2022/07/07 09:26:48;;;;;;;3.45;1.70;;;19.90;99.90;;;;;;5056070;28;20048;-74
2022/07/07 09:29:20;;;;;;;5.03;1.60;;;19.90;99.90;;;;;;5056160;28;20056;-76
2022/07/07 09:31:53;;;;;;;3.35;1.60;;;19.90;99.90;;;;;;5038185;28;20140;-76
2022/07/07 09:34:24;;;;;;;3.13;1.38;;;19.70;99.90;;;;;;5055424;28;20041;-75
2022/07/07 09:39:47;;;;;;;3.88;1.70;;;19.80;99.90;;;;;;5053904;28;20416;-78
2022/07/07 09:42:34;;;;;;;7.32;2.15;;;20.00;99.90;;;;;;5054822;28;20045;-78
2022/07/07 09:45:07;;;;;;;6.05;2.40;;;20.00;99.90;;;;;;5053602;28;20041;-77
2022/07/07 09:47:34;;;;;;;3.55;1.70;;;20.00;99.90;;;;;;5053552;28;20064;-73
2022/07/07 09:50:13;;;;;;;2.90;1.42;;;19.80;99.90;;;;;;5055761;28;20040;-74
2022/07/07 09:52:44;;;;;;;3.22;1.35;;;19.80;99.90;;;;;;5038719;28;20065;-78
2022/07/07 09:55:12;;;;;;;11.90;1.52;;;19.80;99.90;;;;;;5053503;28;20086;-67
2022/07/07 09:57:40;;;;;;;4.43;1.42;;;19.90;99.90;;;;;;5036674;28;20096;-75
2022/07/07 10:00:07;;;;;;;2.20;1.23;;;19.90;99.90;;;;;;5053330;28;20056;-76
2022/07/07 10:02:36;;;;;;;2.90;1.40;;;20.10;99.90;;;;;;5053686;28;20045;-75
2022/07/07 10:05:04;;;;;;;;;;;20.20;99.90;;;;;;5054537;28;20377;-75
2022/07/07 10:07:32;;;;;;;3.95;1.50;;;20.30;99.90;;;;;;5054764;28;19923;-75
2022/07/07 10:10:05;;;;;;;4.07;1.58;;;20.30;99.90;;;;;;5054130;28;20453;-75
2022/07/07 10:12:32;;;;;;;2.78;1.33;;;20.30;99.90;;;;;;5053139;28;20037;-76
2022/07/07 10:15:11;;;;;;;2.85;1.10;;;20.30;99.90;;;;;;5054440;28;20472;-76
2022/07/07 10:17:39;;;;;;;2.22;1.10;;;20.30;99.90;;;;;;5054124;28;20067;-75
2022/07/07 10:20:06;;;;;;;2.72;1.40;;;20.20;99.90;;;;;;5054901;28;20052;-75
2022/07/07 10:22:34;;;;;;;4.15;1.30;;;20.20;99.90;;;;;;5053491;28;20048;-76
2022/07/07 10:25:01;;;;;;;3.03;1.27;;;20.10;99.90;;;;;;5053155;28;20401;-76
2022/07/07 10:27:28;;;;;;;3.20;1.85;;;20.10;99.90;;;;;;5053714;28;20045;-75
2022/07/07 10:29:57;;;;;;;2.42;1.27;;;20.20;99.90;;;;;;5054676;28;20103;-76
2022/07/07 10:33:01;;;;;;;1.73;1.00;;;20.30;99.90;;;;;;5053042;28;20051;-75
2022/07/07 10:35:28;;;;;;;4.00;1.40;;;20.40;99.90;;;;;;5049798;28;20047;-76
2022/07/07 10:37:56;;;;;;;2.22;1.73;;;20.40;99.90;;;;;;5052926;28;20480;-76
2022/07/07 10:40:32;;;;;;;2.60;1.48;;;20.40;99.90;;;;;;5053853;28;20056;-72
2022/07/07 10:43:14;;;;;;;28.92;25.48;;;20.40;99.90;;;;;;5052893;28;20037;-76
2022/07/07 10:45:48;;;;;;;4.75;3.15;;;20.50;99.90;;;;;;5054793;28;20045;-71
2022/07/07 10:48:44;;;;;;;3.65;1.98;;;20.50;99.90;;;;;;5054598;28;20044;-72
2022/07/07 10:51:14;;;;;;;3.45;1.20;;;20.40;99.90;;;;;;5053625;28;20483;-73
2022/07/07 10:54:00;;;;;;;2.80;1.20;;;20.40;99.90;;;;;;5053473;28;20044;-72
2022/07/07 10:56:27;;;;;;;2.45;1.23;;;20.40;99.90;;;;;;5053798;28;20055;-70
2022/07/07 10:58:55;;;;;;;4.03;1.42;;;20.50;99.90;;;;;;5052583;28;20362;-75
2022/07/07 11:01:23;;;;;;;2.88;1.30;;;20.50;99.90;;;;;;5053474;28;20083;-69
2022/07/07 11:03:50;;;;;;;4.18;1.35;;;20.60;99.90;;;;;;5054336;28;20041;-67
2022/07/07 11:06:17;;;;;;;3.65;1.50;;;20.50;99.90;;;;;;5053290;28;20037;-66
2022/07/07 11:08:54;;;;;;;4.80;1.38;;;20.40;99.90;;;;;;5051918;28;20045;-67
2022/07/07 11:11:21;;;;;;;3.15;1.30;;;20.50;99.90;;;;;;5054084;28;20045;-65
2022/07/07 11:13:48;;;;;;;3.58;1.65;;;20.60;99.90;;;;;;5053088;28;20503;-66
2022/07/07 11:16:21;;;;;;;2.13;1.08;;;20.50;99.90;;;;;;5053056;28;20045;-78
2022/07/07 11:18:50;;;;;;;3.97;1.20;;;20.40;99.90;;;;;;5052464;28;20154;-72
2022/07/07 11:21:17;;;;;;;3.40;1.33;;;20.40;99.90;;;;;;5035773;28;20395;-76
2022/07/07 11:23:48;;;;;;;3.80;1.50;;;20.30;99.90;;;;;;5053014;28;20049;-72
2022/07/07 11:26:25;;;;;;;4.28;1.40;;;20.40;99.90;;;;;;5051899;28;20119;-67
2022/07/07 11:28:56;;;;;;;2.05;1.20;;;20.50;99.90;;;;;;5035968;28;20096;-77
2022/07/07 11:31:28;;;;;;;4.38;1.98;;;20.60;99.90;;;;;;5052228;28;20418;-73
2022/07/07 11:33:56;;;;;;;3.90;1.50;;;20.60;99.90;;;;;;5053788;28;20044;-80
2022/07/07 11:36:31;;;;;;;2.53;1.38;;;20.70;99.90;;;;;;5051914;28;20044;-74
2022/07/07 11:39:00;;;;;;;2.30;1.63;;;20.70;99.90;;;;;;5052075;28;20059;-77
2022/07/07 11:41:40;;;;;;;3.95;1.13;;;20.60;99.90;;;;;;5052149;28;20048;-78
2022/07/07 11:44:08;;;;;;;4.80;1.30;;;20.60;99.90;;;;;;5052837;28;20044;-77
2022/07/07 11:46:35;;;;;;;3.77;1.00;;;20.70;99.90;;;;;;5058430;28;20041;-80
2022/07/07 11:49:02;;;;;;;2.33;1.30;;;20.60;99.90;;;;;;5040464;28;20281;-76
2022/07/07 11:51:36;;;;;;;2.75;1.48;;;20.60;99.90;;;;;;5056882;28;20526;-76
2022/07/07 11:54:04;;;;;;;3.17;1.42;;;20.50;99.90;;;;;;5039432;28;20365;-79
2022/07/07 11:56:32;;;;;;;2.72;1.20;;;20.50;99.90;;;;;;5055926;28;20451;-74
2022/07/07 11:59:00;;;;;;;24.42;20.20;;;20.60;99.90;;;;;;5055633;28;20048;-73
2022/07/07 12:01:31;;;;;;;7.35;3.63;;;20.80;99.90;;;;;;5072399;28;20463;-71
2022/07/07 12:04:01;;;;;;;3.30;1.73;;;20.80;99.90;;;;;;5056481;28;20051;-72
2022/07/07 12:06:28;;;;;;;6.57;1.50;;;20.80;99.90;;;;;;5039382;28;20044;-72
2022/07/07 12:08:56;;;;;;;4.80;2.05;;;21.00;99.90;;;;;;5057082;28;20052;-71
2022/07/07 12:11:23;;;;;;;3.75;1.15;;;21.00;99.90;;;;;;5055727;28;20068;-71
2022/07/07 12:13:51;;;;;;;6.00;1.50;;;21.30;99.90;;;;;;5055245;28;20051;-72
2022/07/07 12:16:18;;;;;;;3.00;1.27;;;21.40;99.90;;;;;;5055820;28;20049;-71
2022/07/07 12:18:45;;;;;;;3.75;1.55;;;21.30;99.90;;;;;;5056665;28;20055;-72
2022/07/07 12:21:13;;;;;;;5.05;2.13;;;21.30;99.90;;;;;;5056088;28;20064;-70
2022/07/07 12:23:42;;;;;;;6.38;1.40;;;21.10;99.90;;;;;;5055228;28;20048;-71
2022/07/07 12:26:17;;;;;;;4.03;1.65;;;21.20;99.90;;;;;;5056294;28;20099;-73
2022/07/07 12:28:44;;;;;;;2.58;1.50;;;21.20;99.90;;;;;;5054929;28;20052;-71
2022/07/07 12:31:21;;;;;;;4.95;1.73;;;21.30;99.90;;;;;;5038855;28;20063;-71
2022/07/07 12:33:51;;;;;;;4.72;1.92;;;21.30;99.90;;;;;;5056226;28;20063;-72
2022/07/07 12:36:24;;;;;;;5.03;2.53;;;21.40;99.90;;;;;;5056316;28;20206;-71
2022/07/07 12:38:55;;;;;;;5.45;2.95;;;21.30;99.90;;;;;;5055985;28;20052;-70
2022/07/07 12:41:35;;;;;;;4.18;1.75;;;21.50;99.90;;;;;;5055008;28;20048;-70
2022/07/07 12:44:30;;;;;;;2.47;1.63;;;21.70;99.90;;;;;;5055638;28;20072;-70
2022/07/07 12:47:17;;;;;;;4.07;1.65;;;21.90;99.90;;;;;;5056108;28;20091;-69
2022/07/07 12:50:03;;;;;;;12.73;10.18;;;21.90;99.90;;;;;;5055790;28;20043;-70
2022/07/07 12:52:30;;;;;;;5.05;3.08;;;22.00;98.90;;;;;;5054715;28;20128;-74
2022/07/07 12:55:13;;;;;;;5.03;2.10;;;22.20;99.60;;;;;;5054810;28;20037;-70
2022/07/07 12:57:41;;;;;;;4.13;1.50;;;22.20;98.40;;;;;;5038463;28;20056;-73